Burgdorf, Idaho
Current Conditions -  °F | °C
As of 9:13 AM on Saturday 22 Nov 2014 (Local Time) from KMYL Reporting Station
Light Snow Light Snow  
Wind Chill: 30°   Ceiling: 2600
Heat Index: 38°   Visibility: 9mi
Dew Point: 32°   Wind: 12mph
Humidity: 79%   Direction: 210°SSW
Pressure: 29.62"   Gusts: 18mph
Location:  44.8627°N, 115.492°W
Report Text: KMYL 221613Z AUTO 21010G16KT 9SM -SN BKN026 OVC039 03/00 A2962 RMK AO2 P0000 T00330000
Loading
Personal Weather Stations






























Interactive Weather Map New forecast layout! Learn more

10-Day Weather Forecast

Advertisements
Track Severe Weather on mobile